createdAt,value
2023-02-15T00:01:11.581Z,18.70
2023-02-15T00:05:08.563Z,18.63
2023-02-15T00:10:08.115Z,19.85
2023-02-15T00:15:08.047Z,17.40
2023-02-15T00:20:08.003Z,16.95
2023-02-15T00:25:07.945Z,15.80
2023-02-15T00:30:07.932Z,18.55
2023-02-15T00:35:07.920Z,18.70
2023-02-15T00:40:08.884Z,17.83
2023-02-15T00:45:08.864Z,19.02
2023-02-15T00:50:08.826Z,18.85
2023-02-15T00:55:08.775Z,20.20
2023-02-15T01:00:08.744Z,19.70
2023-02-15T01:05:08.722Z,21.38
2023-02-15T01:10:08.689Z,17.05
2023-02-15T01:15:08.620Z,20.00
2023-02-15T01:20:08.572Z,19.33
2023-02-15T01:25:08.575Z,17.25
2023-02-15T01:30:08.579Z,26.20
2023-02-15T01:35:08.508Z,18.70
2023-02-15T01:40:08.483Z,21.17
2023-02-15T01:45:08.422Z,21.52
2023-02-15T01:50:18.345Z,0
2023-02-15T01:55:09.317Z,23.58
2023-02-15T02:00:08.394Z,20.23
2023-02-15T02:05:08.345Z,19.02
2023-02-15T02:10:08.354Z,22.33
2023-02-15T02:15:08.313Z,22.05
2023-02-15T02:20:08.267Z,24.83
2023-02-15T02:25:08.206Z,24.27
2023-02-15T02:30:08.184Z,28.33
2023-02-15T02:35:08.136Z,23.75
2023-02-15T02:40:18.056Z,0
2023-02-15T02:45:08.044Z,26.42
2023-02-15T02:50:07.972Z,28.35
2023-02-15T02:55:07.904Z,28.55
2023-02-15T03:00:09.025Z,28.52
2023-02-15T03:05:07.956Z,24.48
2023-02-15T03:10:07.844Z,26.27
2023-02-15T03:15:08.813Z,29.80
2023-02-15T03:20:08.771Z,27.92
2023-02-15T03:25:08.716Z,23.48
2023-02-15T03:30:08.734Z,26.23
2023-02-15T03:35:08.808Z,23.67
2023-02-15T03:40:08.802Z,20.83
2023-02-15T03:45:08.772Z,21.90
2023-02-15T03:50:18.690Z,0
2023-02-15T03:55:08.644Z,21.67
2023-02-15T04:00:08.553Z,19.02
2023-02-15T04:05:08.465Z,23.00
2023-02-15T04:10:08.404Z,23.10
2023-02-15T04:15:08.368Z,22.13
2023-02-15T04:20:08.354Z,21.35
2023-02-15T04:25:08.306Z,23.92
2023-02-15T04:30:08.310Z,21.05
2023-02-15T04:35:08.260Z,24.45
2023-02-15T04:40:08.196Z,24.85
2023-02-15T04:45:08.169Z,21.70
2023-02-15T04:50:08.141Z,24.58
2023-02-15T04:55:08.212Z,23.17
2023-02-15T05:00:08.235Z,23.55
2023-02-15T05:05:02.572Z,24.02
2023-02-15T05:10:02.811Z,24.63
2023-02-15T05:15:03.008Z,23.80
2023-02-15T05:20:03.021Z,26.10
2023-02-15T05:25:02.856Z,28.10
2023-02-15T05:30:02.995Z,24.75
2023-02-15T05:35:02.386Z,27.40
2023-02-15T05:40:02.672Z,25.15
2023-02-15T05:45:03.370Z,22.35
2023-02-15T05:50:02.629Z,23.08
2023-02-15T05:55:03.383Z,26.45
2023-02-15T06:00:02.670Z,25.40
2023-02-15T06:05:02.964Z,23.88
2023-02-15T06:10:02.360Z,24.30
2023-02-15T06:15:04.930Z,26.33
2023-02-15T06:20:02.141Z,22.15
2023-02-15T06:25:02.940Z,29.00
2023-02-15T06:30:04.324Z,23.85
2023-02-15T06:35:02.603Z,26.08
2023-02-15T06:40:04.014Z,28.45
2023-02-15T06:45:03.096Z,23.55
2023-02-15T06:50:02.545Z,25.42
2023-02-15T06:55:03.075Z,29.15
2023-02-15T07:00:02.447Z,25.83
2023-02-15T07:05:02.952Z,29.33
2023-02-15T07:10:02.504Z,32.80
2023-02-15T07:15:02.789Z,34.60
2023-02-15T07:20:03.194Z,33.85
2023-02-15T07:25:02.607Z,33.37
2023-02-15T07:30:02.805Z,29.02
2023-02-15T07:35:03.765Z,32.47
2023-02-15T07:40:03.327Z,34.47
2023-02-15T07:45:02.853Z,30.13
2023-02-15T07:50:07.570Z,32.80
2023-02-15T07:55:04.935Z,30.85
2023-02-15T08:00:03.455Z,31.83
2023-02-15T08:05:02.969Z,33.20
2023-02-15T08:10:05.713Z,28.05
2023-02-15T08:15:03.912Z,30.80
2023-02-15T08:20:13.028Z,34.63
2023-02-15T08:25:06.114Z,37.08
2023-02-15T08:30:04.323Z,31.75
2023-02-15T08:35:05.031Z,32.28
2023-02-15T08:40:04.213Z,35.50
2023-02-15T08:45:21.119Z,39.30
2023-02-15T08:50:08.906Z,33.03
2023-02-15T08:55:04.914Z,34.75
2023-02-15T09:00:04.056Z,30.88
2023-02-15T09:05:03.997Z,31.17
2023-02-15T09:10:02.951Z,30.75
2023-02-15T09:15:02.251Z,32.88
2023-02-15T09:20:03.190Z,33.92
2023-02-15T09:25:10.598Z,30.50
2023-02-15T09:30:04.051Z,27.60
2023-02-15T09:35:04.381Z,31.13
2023-02-15T09:40:04.232Z,33.47
2023-02-15T09:45:03.229Z,28.10
2023-02-15T09:50:03.034Z,31.55
2023-02-15T09:55:03.297Z,29.95
2023-02-15T10:00:03.183Z,31.98
2023-02-15T10:05:06.437Z,35.72
2023-02-15T10:10:20.454Z,30.75
2023-02-15T10:15:09.265Z,30.75
2023-02-15T10:20:05.107Z,32.33
2023-02-15T10:25:03.427Z,27.35
2023-02-15T10:30:05.406Z,27.35
2023-02-15T10:35:04.033Z,29.38
2023-02-15T10:40:06.076Z,25.60
2023-02-15T10:45:12.508Z,0
2023-02-15T10:50:03.115Z,30.88
2023-02-15T10:55:02.842Z,27.42
2023-02-15T11:00:05.165Z,30.48
2023-02-15T11:05:03.098Z,27.67
2023-02-15T11:10:03.437Z,31.30
2023-02-15T11:15:06.110Z,26.08
2023-02-15T11:20:03.569Z,28.42
2023-02-15T11:25:10.367Z,27.05
2023-02-15T11:30:02.657Z,27.55
2023-02-15T11:35:03.604Z,27.13
2023-02-15T11:40:10.965Z,29.45
2023-02-15T11:45:06.424Z,31.45
2023-02-15T11:50:04.011Z,29.88
2023-02-15T11:55:02.859Z,23.58
2023-02-15T12:00:13.652Z,30.13
2023-02-15T12:05:12.922Z,22.58
2023-02-15T12:10:06.222Z,27.83
2023-02-15T12:15:04.534Z,32.08
2023-02-15T12:20:05.156Z,28.38
2023-02-15T12:25:02.747Z,27.02
2023-02-15T12:30:04.089Z,24.38
2023-02-15T12:35:02.892Z,32.70
2023-02-15T12:40:05.423Z,24.02
2023-02-15T12:45:03.722Z,30.48
2023-02-15T12:50:12.205Z,27.95
2023-02-15T12:55:05.277Z,30.88
2023-02-15T13:00:13.809Z,25.88
2023-02-15T13:05:04.516Z,31.70
2023-02-15T13:10:04.242Z,29.67
2023-02-15T13:15:04.254Z,27.38
2023-02-15T13:20:12.378Z,24.83
2023-02-15T13:25:03.586Z,27.40
2023-02-15T13:30:05.627Z,29.05
2023-02-15T13:35:06.502Z,30.38
2023-02-15T13:40:12.598Z,24.40
2023-02-15T13:45:03.416Z,21.15
2023-02-15T13:50:12.851Z,28.10
2023-02-15T13:55:19.950Z,0
2023-02-15T14:00:02.763Z,23.42
2023-02-15T14:05:13.202Z,29.92
2023-02-15T14:10:07.918Z,23.98
2023-02-15T14:15:03.566Z,25.50
2023-02-15T14:20:24.920Z,22.92
2023-02-15T14:25:10.087Z,23.65
2023-02-15T14:30:03.897Z,22.83
2023-02-15T14:35:13.530Z,27.23
2023-02-15T14:40:05.974Z,24.38
2023-02-15T14:45:14.970Z,0
2023-02-15T14:50:08.799Z,23.23
2023-02-15T14:55:06.903Z,26.25
2023-02-15T15:00:06.229Z,23.90
2023-02-15T15:05:09.513Z,22.40
2023-02-15T15:10:03.163Z,23.23
2023-02-15T15:15:13.916Z,21.88
2023-02-15T15:20:04.586Z,26.08
2023-02-15T15:25:03.808Z,23.65
2023-02-15T15:30:14.617Z,0
2023-02-15T15:35:05.457Z,21.90
2023-02-15T15:40:12.760Z,19.83
2023-02-15T15:45:03.102Z,22.67
2023-02-15T15:50:03.341Z,19.42
2023-02-15T15:55:02.821Z,19.92
2023-02-15T16:00:02.984Z,21.52
2023-02-15T16:05:03.544Z,20.15
2023-02-15T16:10:03.843Z,19.98
2023-02-15T16:15:05.259Z,18.83
2023-02-15T16:20:13.752Z,0
2023-02-15T16:25:06.214Z,19.38
2023-02-15T16:30:02.754Z,19.27
2023-02-15T16:35:03.174Z,24.83
2023-02-15T16:40:12.406Z,24.95
2023-02-15T16:45:02.409Z,23.48
2023-02-15T16:50:02.393Z,25.27
2023-02-15T16:55:02.462Z,20.50
2023-02-15T17:00:02.512Z,20.50
2023-02-15T17:05:02.732Z,23.25
2023-02-15T17:10:02.922Z,18.67
2023-02-15T17:15:02.933Z,25.45
2023-02-15T17:20:02.008Z,23.23
2023-02-15T17:25:02.124Z,22.73
2023-02-15T17:30:02.554Z,23.67
2023-02-15T17:35:02.704Z,20.83
2023-02-15T17:40:02.763Z,22.20
2023-02-15T17:45:02.854Z,22.35
2023-02-15T17:50:02.839Z,24.23
2023-02-15T17:55:02.894Z,21.50
2023-02-15T18:00:03.200Z,24.70
2023-02-15T18:05:02.421Z,25.23
2023-02-15T18:10:02.893Z,24.10
2023-02-15T18:15:03.041Z,23.65
2023-02-15T18:20:02.139Z,24.75
2023-02-15T18:25:02.207Z,28.42
2023-02-15T18:30:02.400Z,23.77
2023-02-15T18:35:02.584Z,26.42
2023-02-15T18:40:02.793Z,23.23
2023-02-15T18:45:02.829Z,26.73
2023-02-15T18:50:02.844Z,22.95
2023-02-15T18:55:03.011Z,24.65
2023-02-15T19:00:02.107Z,22.42
2023-02-15T19:05:02.248Z,23.80
2023-02-15T19:10:02.251Z,22.27
2023-02-15T19:15:02.345Z,23.63
2023-02-15T19:20:02.484Z,21.73
2023-02-15T19:25:02.615Z,22.92
2023-02-15T19:30:02.682Z,20.08
2023-02-15T19:35:02.702Z,21.55
2023-02-15T19:40:02.719Z,23.30
2023-02-15T19:45:02.807Z,22.65
2023-02-15T19:50:02.781Z,23.50
2023-02-15T19:55:02.917Z,22.08
2023-02-15T20:00:15.908Z,21.23
2023-02-15T20:05:02.061Z,24.42
2023-02-15T20:10:02.110Z,25.95
2023-02-15T20:15:02.280Z,25.30
2023-02-15T20:20:02.426Z,25.27
2023-02-15T20:25:02.643Z,25.25
2023-02-15T20:30:02.764Z,22.98
2023-02-15T20:35:02.849Z,24.85
2023-02-15T20:40:02.945Z,26.83
2023-02-15T20:45:01.964Z,25.70
2023-02-15T20:50:01.996Z,25.75
2023-02-15T20:55:02.082Z,25.52
2023-02-15T21:00:02.207Z,26.98
2023-02-15T21:05:02.312Z,25.92
2023-02-15T21:10:02.463Z,27.60
2023-02-15T21:15:02.627Z,32.92
2023-02-15T21:20:02.814Z,30.48
2023-02-15T21:25:03.087Z,29.40
2023-02-15T21:30:02.459Z,26.55
2023-02-15T21:35:02.705Z,33.65
2023-02-15T21:40:02.880Z,30.27
2023-02-15T21:45:02.989Z,38.70
2023-02-15T21:50:02.120Z,38.60
2023-02-15T21:55:02.509Z,41.67
2023-02-15T22:00:02.613Z,37.45
2023-02-15T22:05:15.538Z,40.05
2023-02-15T22:10:08.537Z,39.05
2023-02-15T22:15:08.496Z,39.72
2023-02-15T22:20:08.601Z,39.95
2023-02-15T22:25:08.523Z,40.15
2023-02-15T22:30:08.551Z,43.20
2023-02-15T22:35:08.526Z,39.67
2023-02-15T22:40:08.480Z,44.17
2023-02-15T22:45:08.386Z,47.97
2023-02-15T22:50:08.269Z,45.97
2023-02-15T22:55:08.291Z,43.28
2023-02-15T23:00:08.236Z,44.63
2023-02-15T23:05:08.261Z,42.38
2023-02-15T23:10:08.239Z,44.63
2023-02-15T23:15:08.272Z,37.78
2023-02-15T23:20:08.210Z,42.40
2023-02-15T23:25:08.174Z,41.70
2023-02-15T23:30:08.229Z,45.55
2023-02-15T23:35:08.225Z,42.78
2023-02-15T23:40:08.255Z,44.15
2023-02-15T23:45:08.210Z,44.47
2023-02-15T23:50:08.183Z,55.85
2023-02-15T23:55:08.086Z,44.10
